Aiguafreda





Hora UTC 11:30
Temperatura 10.9 ºC
Sòl 15 cm 13.6 ºC
Humitat 54.3 %
Pressió 1020.2 hPa
Pluja 0.0 mm
Velocitat vent 5.4 km/h
Direcció vent SSE
Radiació solar 405.8 W/m²

Dades diàries 2021-01-17



Hora UTC (hivern +1h; estiu +2h)
Temperatura (ºC) Humitat (%) Pressió (hPa) Velocitat vent (km/h) Precipitació (mm) Radiació solar (W/m²)
Hora UTC Aire Sòl 15 cm Humitat Pressió Vel. Dir. Vel. Max Dir. Intent. màx 5 min. Rad. Sol.
00:05 1.5 -0.1 90.8 1022.6 0.2 E 0.2 ESE 0.0 0.0
00:10 1.4 -0.4 90.3 1022.6 0.7 W 6.1 W 0.0 0.0
00:15 1.3 -0.5 90.4 1022.5 0.2 WSW 3.4 SW 0.0 0.0
00:20 1.2 -0.5 90.5 1022.3 0.0 NNE 0.0 WSW 0.0 0.0
00:25 1.0 -0.7 90.8 1022.4 0.0 NNE 0.0 SE 0.0 0.0
00:30 1.0 -0.6 91.1 1022.2 0.5 W 6.1 W 0.0 0.0
00:35 0.9 -0.6 91.3 1022.2 0.7 S 8.8 SSE 0.0 0.0
00:40 0.9 -0.6 91.5 1022.2 0.6 SSE 6.1 SW 0.0 0.0
00:45 1.0 -0.7 91.5 1022.0 0.5 E 6.1 NNW 0.0 0.0
00:50 0.9 -0.7 91.5 1021.9 0.6 NE 6.1 NNE 0.0 0.0
00:55 0.9 -0.8 91.6 1021.9 0.7 NNE 6.1 NE 0.0 0.0
01:00 1.1 -0.6 91.8 1021.9 2.1 N 11.5 NE 0.0 0.0
01:05 1.2 -0.6 91.4 1021.8 2.5 NNE 11.5 NNE 0.0 0.0
01:10 1.2 -0.6 91.0 1021.8 1.9 NNE 11.5 NNE 0.0 0.0
01:15 1.2 -0.6 90.9 1021.9 2.2 NE 11.5 NE 0.0 0.0
01:20 1.3 -0.3 91.2 1021.8 5.7 NE 14.2 NE 0.0 0.0
01:25 1.6 0.1 90.4 1021.8 6.0 ENE 14.2 NNE 0.0 0.0
01:30 1.7 0.2 89.4 1021.8 4.9 ENE 14.2 NE 0.0 0.0
01:35 1.7 0.4 88.9 1021.7 6.2 ENE 14.2 SE 0.0 0.0
01:40 1.7 0.3 88.6 1021.7 4.1 ENE 11.5 NE 0.0 0.0
01:45 1.6 0.2 88.6 1021.8 2.7 ENE 11.5 NE 0.0 0.0
01:50 1.6 0.2 88.9 1021.8 6.4 NE 14.2 NE 0.0 0.0
01:55 1.6 0.2 89.0 1021.7 3.0 NE 8.8 NE 0.0 0.0
02:00 1.5 0.2 89.0 1021.8 4.8 NE 14.2 NE 0.0 0.0
02:05 1.5 0.1 89.0 1021.9 6.2 NE 14.2 NE 0.0 0.0
02:10 1.5 0.2 89.3 1021.8 8.4 NE 19.6 NNE 0.0 0.0
02:15 1.5 0.3 89.3 1021.7 7.5 NNE 16.9 N 0.0 0.0
02:20 1.4 0.2 89.1 1021.6 4.7 NE 11.5 NE 0.0 0.0
02:25 1.3 0.1 89.3 1021.6 3.7 NE 11.5 NNE 0.0 0.0
02:30 1.2 0.0 89.5 1021.5 4.6 NE 14.2 NE 0.0 0.0
02:35 1.1 -0.1 89.6 1021.5 2.1 SE 6.1 SSE 0.0 0.0
02:40 1.1 -0.1 90.0 1021.6 1.9 E 8.8 ENE 0.0 0.0
02:45 1.1 -0.1 90.2 1021.6 0.7 E 6.1 NE 0.0 0.0
02:50 1.2 0.1 90.4 1021.4 3.2 ESE 8.8 NE 0.0 0.0
02:55 1.2 0.0 89.9 1021.4 4.1 NE 11.5 N 0.0 0.0
03:00 1.2 0.1 90.0 1021.3 6.4 ENE 19.6 NE 0.0 0.0
03:05 1.2 0.0 89.8 1021.3 2.8 NE 11.5 NNE 0.0 0.0
03:10 1.1 0.0 89.8 1021.3 3.3 E 11.5 ESE 0.0 0.0
03:15 1.1 0.0 89.8 1021.3 4.0 ENE 11.5 E 0.0 0.0
03:20 1.2 -0.1 89.6 1021.2 6.1 NE 14.2 NE 0.0 0.0
03:25 1.1 -0.2 89.5 1021.2 3.8 NE 8.8 NE 0.0 0.0
03:30 1.1 -0.2 89.8 1021.3 5.7 NE 14.2 NE 0.0 0.0
03:35 1.1 -0.2 89.8 1021.3 1.5 ENE 6.1 SSE 0.0 0.0
03:40 1.1 -0.1 90.0 1021.3 6.1 NE 14.2 NNE 0.0 0.0
03:45 1.2 -0.1 89.9 1021.2 4.1 NE 11.5 NE 0.0 0.0
03:50 1.2 0.0 89.8 1021.1 3.4 ENE 11.5 NE 0.0 0.0
03:55 1.2 0.0 89.8 1021.1 5.6 NE 11.5 NNE 0.0 0.0
04:00 1.2 0.0 89.9 1021.1 4.9 NE 11.5 NE 0.0 0.0
04:05 1.2 0.0 89.6 1021.0 4.0 NE 11.5 NNE 0.0 0.0
04:10 1.1 -0.1 89.7 1021.1 4.2 ENE 11.5 NE 0.0 0.0
04:15 1.0 -0.1 89.7 1021.0 3.7 ENE 14.2 ENE 0.0 0.0
04:20 0.9 -0.2 89.9 1021.1 4.5 NE 11.5 ENE 0.0 0.0
04:25 0.8 -0.2 90.1 1021.0 4.5 E 11.5 E 0.0 0.0
04:30 0.8 -0.2 90.4 1020.9 4.3 E 11.5 E 0.0 0.0
04:35 0.8 -0.3 90.4 1020.9 5.2 ENE 14.2 NE 0.0 0.0
04:40 0.8 -0.3 90.5 1020.7 6.9 NE 14.2 NE 0.0 0.0
04:45 0.8 -0.3 90.6 1020.6 6.2 NE 14.2 NE 0.0 0.0
04:50 0.7 -0.3 90.6 1020.5 6.2 ENE 16.9 NE 0.0 0.0
04:55 0.7 -0.3 90.6 1020.6 3.6 ENE 11.5 NNE 0.0 0.0
05:00 0.7 -0.5 90.6 1020.6 3.1 ENE 11.5 NE 0.0 0.0
05:05 0.7 -0.5 90.8 1020.6 5.9 NE 14.2 NNE 0.0 0.0
05:10 0.7 -0.4 90.8 1020.6 8.9 NE 19.6 NE 0.0 0.0
05:15 0.7 -0.4 90.6 1020.5 6.6 NE 16.9 N 0.0 0.0
05:20 0.8 -0.4 90.4 1020.6 6.4 NE 14.2 ENE 0.0 0.0
05:25 0.8 -0.3 90.3 1020.6 6.8 NE 16.9 NNE 0.0 0.0
05:30 0.8 -0.3 90.0 1020.6 6.2 NE 14.2 NE 0.0 0.0
05:35 0.8 -0.3 89.8 1020.6 4.8 NE 16.9 NE 0.0 0.0
05:40 0.7 -0.4 89.9 1020.5 4.8 NE 14.2 NE 0.0 0.0
05:45 0.7 -0.4 90.0 1020.5 3.8 NE 8.8 NNE 0.0 0.0
05:50 0.7 -0.4 90.1 1020.6 4.7 ENE 11.5 NNE 0.0 0.0
05:55 0.7 -0.4 90.2 1020.7 5.6 NE 14.2 NE 0.0 0.0
06:00 0.7 -0.4 90.2 1020.7 6.5 NE 16.9 N 0.0 0.0
06:05 0.7 -0.4 90.2 1020.9 3.4 NE 11.5 NE 0.0 0.0
06:10 0.8 -0.3 90.2 1020.8 2.5 ENE 11.5 ENE 0.0 0.0
06:15 0.9 -0.2 89.7 1020.6 6.0 NE 16.9 ENE 0.0 0.0
06:20 0.9 -0.2 89.4 1020.7 4.9 ENE 16.9 NE 0.0 0.0
06:25 0.8 -0.3 89.2 1020.8 2.7 ENE 11.5 ENE 0.0 0.0
06:30 0.7 -0.5 89.6 1020.8 1.1 NE 8.8 NNE 0.0 0.0
06:35 0.7 -0.7 90.2 1020.9 0.2 NNW 6.1 N 0.0 0.0
06:40 0.7 -0.7 90.1 1020.8 0.2 NE 8.8 NE 0.0 0.0
06:45 0.7 -0.6 90.3 1020.7 5.4 NNE 14.2 NNE 0.0 0.0
06:50 0.9 -0.3 90.1 1020.8 7.9 NE 22.3 NE 0.0 0.0
06:55 0.8 -0.3 89.6 1020.9 6.4 NE 14.2 N 0.0 0.0
07:00 0.9 -0.2 89.4 1020.9 7.1 ENE 16.9 ENE 0.0 0.0
07:05 0.9 -0.2 89.1 1020.9 3.5 NE 14.2 NNE 0.0 0.0
07:10 0.9 -0.2 89.1 1020.8 3.0 E 11.5 NE 0.0 0.0
07:15 1.0 0.0 89.1 1020.9 4.9 ENE 14.2 NE 0.0 0.0
07:20 1.3 0.1 88.5 1020.9 7.4 ENE 16.9 NE 0.0 0.0
07:25 1.3 0.2 88.0 1020.9 2.9 ENE 11.5 ENE 0.0 0.0
07:30 1.5 0.4 87.7 1020.8 6.3 ENE 14.2 ENE 0.0 0.0
07:35 1.5 0.5 87.3 1020.8 6.7 ENE 16.9 NE 0.0 0.0
07:40 1.6 0.6 87.1 1020.8 7.6 NE 14.2 NNE 0.0 0.0
07:45 1.6 0.7 86.9 1020.8 9.6 NE 22.3 NE 0.0 0.0
07:50 1.7 0.9 86.4 1020.7 7.1 NE 16.9 NE 0.0 0.0
07:55 1.7 0.9 86.3 1020.8 6.9 NE 14.2 NE 0.0 0.0
08:00 1.7 1.0 86.3 1020.8 6.6 NE 14.2 N 0.0 0.0
08:05 1.9 1.2 86.2 1020.7 5.7 ENE 11.5 NNE 0.0 0.0
08:10 2.2 1.6 85.3 1020.6 5.9 ENE 14.2 NE 0.0 0.0
08:15 2.8 2.2 83.6 1020.7 7.3 ENE 19.6 NNE 0.0 0.0
08:20 3.4 2.7 81.2 1020.7 6.3 ENE 16.9 NE 0.0 0.0
08:25 3.4 2.6 80.2 1020.7 7.3 ENE 16.9 ENE 0.0 0.0
08:30 3.2 2.7 81.1 1020.8 6.8 ENE 16.9 NE 0.0 0.0
08:35 3.8 3.9 80.4 1020.7 6.0 NE 14.2 NE 0.0 0.0
08:40 4.6 4.7 77.2 1020.8 7.0 ENE 14.2 ENE 0.0 0.1
08:45 5.1 5.6 75.4 1021.0 4.5 NNE 8.8 NE 0.0 7.9
08:50 5.8 6.7 72.7 1021.0 0.9 NW 6.1 N 0.0 3.0
08:55 6.6 7.5 69.6 1021.1 3.3 E 11.5 ENE 0.0 9.4
09:00 6.5 7.4 67.7 1021.2 9.4 ENE 25.0 ENE 0.0 0.3
09:05 6.0 7.2 69.5 1021.2 9.6 NE 22.3 NNE 0.0 5.5
09:10 5.8 7.3 71.2 1021.3 6.7 ENE 16.9 ESE 0.0 150.0
09:15 5.9 7.5 70.8 1021.4 8.9 ENE 22.3 NE 0.0 312.3
09:20 5.7 7.2 70.8 1021.3 10.0 NE 25.0 ENE 0.0 187.2
09:25 5.7 7.2 72.1 1021.2 7.8 ENE 22.3 NE 0.0 132.4
09:30 5.9 7.6 71.2 1021.1 10.5 NE 25.0 NNE 0.0 122.9
09:35 6.1 7.6 70.4 1021.2 8.8 NE 19.6 NE 0.0 109.8
09:40 6.1 7.6 70.0 1021.1 10.2 NE 22.3 NNE 0.0 124.6
09:45 6.4 8.0 69.8 1021.2 9.3 ENE 16.9 N 0.0 143.9
09:50 6.7 8.4 69.2 1021.2 7.4 ENE 22.3 NE 0.0 151.6
09:55 7.0 8.4 68.1 1021.3 9.0 NE 22.3 NNE 0.0 165.8
10:00 7.3 8.4 67.5 1021.2 7.0 ENE 19.6 N 0.0 181.6
10:05 7.9 9.5 66.0 1021.1 5.3 ENE 14.2 ENE 0.0 176.4
10:10 8.3 9.9 64.4 1021.0 7.2 NE 19.6 NNE 0.0 237.8
10:15 8.5 10.2 63.9 1020.9 4.9 ENE 14.2 NE 0.0 281.9
10:20 9.1 10.9 60.8 1021.0 4.0 E 8.8 ESE 0.0 259.8
10:25 9.6 11.6 58.2 1021.1 5.1 E 11.5 NE 0.0 304.6
10:30 9.9 11.8 56.2 1020.9 3.5 SE 8.8 E 0.0 323.5
10:35 10.2 12.3 55.8 1021.0 4.3 SSW 11.5 SW 0.0 345.7
10:40 10.4 12.9 55.3 1021.0 4.7 SE 8.8 S 0.0 362.9
10:45 10.7 13.4 54.6 1021.0 2.7 SSE 8.8 SSW 0.0 378.5
10:50 11.0 13.6 54.3 1020.8 3.5 ENE 11.5 NE 0.0 420.0
10:55 11.1 13.4 53.0 1020.7 2.9 E 16.9 NNW 0.0 423.4
11:00 11.1 13.1 52.8 1020.7 4.2 ESE 14.2 E 0.0 442.4
11:05 11.0 13.4 52.8 1020.5 4.3 ESE 14.2 NE 0.0 448.4
11:10 10.9 13.3 53.2 1020.4 5.4 ENE 14.2 N 0.0 449.8
11:15 11.1 13.6 53.6 1020.5 4.2 E 11.5 N 0.0 437.7
11:20 11.2 13.7 53.6 1020.3 5.5 ESE 11.5 E 0.0 440.7
11:25 10.8 13.2 54.0 1020.3 5.7 SE 11.5 SSE 0.0 435.4
11:30 10.9 13.6 54.3 1020.2 5.4 SSE 11.5 SSW 0.0 405.8
Màxima 11.3 13.7 91.8 1022.6 10.5 NE 25.0 NNE 0.0 449.8
Mínima 0.6 -0.8 52.8 1020.2
Total 0.0